This is the latest recevied weather packets stored in our database for station/object OE-11365. If no packets are shown the sender has not sent any weather packets the latest 10 day(s).
| Time | Temp. | Humidity | Pressure | Rain* | Wind** | Luminosity | Snow |
|---|---|---|---|---|---|---|---|
| 1787886327 | 15.56° C | 94% | 1017 hPa | 0 mm | - | 0 W/m² | - |
| 1787885731 | 15.56° C | 94% | 1017.1 hPa | 0 mm | - | 0 W/m² | - |
| 1787884904 | 15.56° C | 93% | 1017.1 hPa | 0 mm | - | 0 W/m² | - |
| 1787884531 | 15.56° C | 91% | 1017 hPa | 0 mm | - | 0 W/m² | - |
| 1787883931 | 16.11° C | 93% | 1016.8 hPa | 0 mm | - | 0 W/m² | - |
| 1787883104 | 15.56° C | 94% | 1016.9 hPa | 0 mm | - | 0 W/m² | - |
| 1787882731 | 16.11° C | 94% | 1016.9 hPa | 0 mm | - | 0 W/m² | - |
| 1787882124 | 15.56° C | 94% | 1017 hPa | 0 mm | - | 0 W/m² | - |
| 1787881304 | 15.56° C | 94% | 1016.9 hPa | 0 mm | - | 0 W/m² | - |
| 1787880931 | 15° C | 93% | 1017.1 hPa | 0 mm | - | 0 W/m² | - |
| 1787880331 | 15.56° C | 91% | 1017 hPa | 0 mm | - | 0 W/m² | - |
| 1787879503 | 15.56° C | 93% | 1017 hPa | 0 mm | - | 0 W/m² | - |
| 1787879130 | 16.11° C | 94% | 1017 hPa | 0 mm | - | 0 W/m² | - |
| 1787878531 | 16.11° C | 92% | 1017.1 hPa | 0 mm | - | 0 W/m² | - |
| 1787877703 | 16.11° C | 90% | 1017.1 hPa | 0 mm | - | 0 W/m² | - |
| 1787877331 | 17.22° C | 90% | 1016.8 hPa | 0 mm | - | 0 W/m² | - |
| 1787876731 | 17.22° C | 90% | 1016.9 hPa | 0 mm | - | 0 W/m² | - |
| 1787875903 | 17.22° C | 89% | 1016.8 hPa | 0 mm | - | 0 W/m² | - |
| 1787875530 | 17.22° C | 91% | 1016.9 hPa | 0 mm | - | 0 W/m² | - |
| 1787874931 | 16.67° C | 90% | 1017.3 hPa | 0 mm | - | 0 W/m² | - |
| 1787874103 | 17.22° C | 88% | 1016.9 hPa | 0 mm | - | 0 W/m² | - |
| 1787873731 | 17.22° C | 88% | 1017.1 hPa | 0 mm | - | 0 W/m² | - |
| 1787873130 | 17.78° C | 87% | 1017 hPa | 0 mm | - | 0 W/m² | - |
| 1787872531 | 18.33° C | 84% | 1016.7 hPa | 0 mm | - | 0 W/m² | - |
| 1787871930 | 18.89° C | 84% | 1016.6 hPa | 0 mm | - | 0 W/m² | - |
* Rain latest hour (hover to see other rain measurements)
** Current wind speed in m/s (hover to see current wind gust speed)